FMMI Airport Information

Runway Information
Runway 11 Length 10171 ft width 148 ft
Elevation 4197 ft Threshold 0 ft Heading 99
Runway 29 Length 10171 ft Width 148 ft
Elevation 4117 ft Threshold 0 ft Heading 279
Airport Frequencies
Type TWR Name TWR Frequency 120.1 MHZ
Airport Navaids
Type VOR-DME Name Ivato Frequency 114500 KHZ
Airport Weather Information & NOTAM
ADDS - METARS form results

(1007 UTC 21 April 2019)
Data provider http://aviationweather.gov/metar/data/
 
METAR text: FMMI 211000Z 10005KT 050V200 9999 SCT020 28/16 Q1017 NOSIG
Conditions at: FMMI (ANTANANARIVO/IVA, KM) observed 1000 UTC 21 April 2019
Temperature: 28.0°C (82°F)
Dewpoint: 16.0°C (61°F) [RH = 48%]
Pressure (altimeter): 30.03 inches Hg (1017.0 mb)
Winds: from the E (100 degrees) at 6 MPH (5 knots; 2.6 m/s)
Visibility: 6 or more miles (10+ km)
Ceiling: at least 12,000 feet AGL
Clouds: scattered clouds at 2000 feet AGL
Weather: no significant weather observed at this time

METAR text: FMMI 210930Z 18005KT 070V220 9999 SCT020 27/17 Q1017 NOSIG
Conditions at: FMMI (ANTANANARIVO/IVA, KM) observed 0930 UTC 21 April 2019
Temperature: 27.0°C (81°F)
Dewpoint: 17.0°C (63°F) [RH = 54%]
Pressure (altimeter): 30.03 inches Hg (1017.0 mb)
Winds: from the S (180 degrees) at 6 MPH (5 knots; 2.6 m/s)
Visibility: 6 or more miles (10+ km)
Ceiling: at least 12,000 feet AGL
Clouds: scattered clouds at 2000 feet AGL
Weather: no significant weather observed at this time

Forecast for: FMMI (ANTANANARIVO/IVA, KM)
Text: TAF FMMI 210500Z 2106/2212 12008KT 9999 FEW017 SCT020
Forecast period: 0600 to 1000 UTC 21 April 2019
Forecast type: FROM: standard forecast or significant change
Winds: from the ESE (120 degrees) at 9 MPH (8 knots; 4.1 m/s)
Visibility: 6 or more miles 10+ km)
Ceiling: at least 12,000 feet AGL
Clouds: few clouds at 1700 feet AGL
scattered clouds at 2000 feet AGL
Weather: no significant weather forecast for this period
Text: BECMG 2110/2112 FEW017CB SCT020
Forecast period: 1000 to 1700 UTC 21 April 2019
Forecast type: BECOMING: Conditions expected to become as follows by 1200 UTC 21 April 2019
Winds: from the ESE (120 degrees) at 9 MPH (8 knots; 4.1 m/s)
Visibility: 6 or more miles 10+ km)
Ceiling: at least 12,000 feet AGL
Clouds: few clouds at 1700 feet AGL
scattered clouds at 2000 feet AGL
Weather: no significant weather forecast for this period
Text: BECMG 2117/2120 FEW010 BKN020
Forecast period: 1700 UTC 21 April 2019 to 1200 UTC 22 April 2019
Forecast type: BECOMING: Conditions expected to become as follows by 2000 UTC 21 April 2019
Winds: from the ESE (120 degrees) at 9 MPH (8 knots; 4.1 m/s)
Visibility: 6 or more miles 10+ km)
Ceiling: 2000 feet AGL
Clouds: few clouds at 1000 feet AGL
broken clouds at 2000 feet AGL
Weather: no significant weather forecast for this period